Terminal Aerodrome Forecast
Issued by NWS

Home | Current Version | Previous Version | Text Only | Print | Product List | Glossary On
Versions: 1 2 3 4 5 6 7 8 9 10 11 12 13 14 15 16 17 18
000
FTUS41 KCAR 310728 AAA
TAFFVE
TAF AMD
KFVE 310728Z 3107/0106 19005KT 4SM BR BKN002
     FM310900 19005KT 2SM BR BKN007
     FM311200 21006KT 5SM BR SCT007 BKN020
     FM311500 24010KT P6SM BKN050
     FM311900 27012G22KT P6SM SCT050=

USA.gov is the U.S. government's official web portal to all federal, state and local government web resources and services.